DLH8FN EDDF-EHAM
Flight info
| Callsign | DLH8FN |
|---|---|
| Flight time | 0h 52m |
| Altitude | 32000 |
| Route | MARUN8M/25C MARUN Y152 ARPEG Z850 ABILU DCT NORKU |
| Aircraft | A321/M-SDE2E3FGIJ1LORWXYZ/HB1 |
Departure
| Time | 2026-04-17 08:46 |
|---|---|
| Airport | Frankfurt Main Airport (EDDF) |
Arrival
| Time | 2026-04-17 09:39 |
|---|---|
| Airport | Amsterdam Airport Schiphol (EHAM) |
| Time | Latitude | Longitude | Altitude | Speed | Heading |
|---|---|---|---|---|---|
| 2026-04-17 08:23 | 50.04456 | 8.56429 | 360 ft | 0 kts | 154° |
| 2026-04-17 08:37 | 50.04465 | 8.56422 | 358 ft | 4 kts | 153° |
| 2026-04-17 08:37 | 50.04489 | 8.56403 | 363 ft | 4 kts | 160° |
| 2026-04-17 08:37 | 50.04512 | 8.56399 | 363 ft | 4 kts | 214° |
| 2026-04-17 08:37 | 50.04533 | 8.56423 | 360 ft | 4 kts | 212° |
| 2026-04-17 08:38 | 50.04556 | 8.56444 | 365 ft | 4 kts | 205° |
| 2026-04-17 08:38 | 50.04574 | 8.56456 | 363 ft | 0 kts | 204° |
| 2026-04-17 08:40 | 50.04573 | 8.56455 | 356 ft | 1 kts | 204° |
| 2026-04-17 08:40 | 50.04557 | 8.56444 | 358 ft | 7 kts | 204° |
| 2026-04-17 08:41 | 50.04510 | 8.56359 | 362 ft | 15 kts | 248° |
| 2026-04-17 08:41 | 50.04466 | 8.56177 | 361 ft | 19 kts | 249° |
| 2026-04-17 08:41 | 50.04398 | 8.56029 | 356 ft | 16 kts | 180° |
| 2026-04-17 08:41 | 50.04300 | 8.56092 | 359 ft | 15 kts | 133° |
| 2026-04-17 08:42 | 50.04261 | 8.56228 | 359 ft | 15 kts | 151° |
| 2026-04-17 08:42 | 50.04158 | 8.56295 | 358 ft | 17 kts | 139° |
| 2026-04-17 08:42 | 50.04173 | 8.56470 | 361 ft | 19 kts | 70° |
| 2026-04-17 08:42 | 50.04220 | 8.56670 | 364 ft | 20 kts | 70° |
| 2026-04-17 08:43 | 50.04268 | 8.56871 | 360 ft | 20 kts | 69° |
| 2026-04-17 08:43 | 50.04321 | 8.57088 | 365 ft | 23 kts | 69° |
| 2026-04-17 08:43 | 50.04376 | 8.57322 | 363 ft | 24 kts | 70° |
| 2026-04-17 08:43 | 50.04434 | 8.57564 | 364 ft | 24 kts | 69° |
| 2026-04-17 08:44 | 50.04492 | 8.57803 | 364 ft | 24 kts | 69° |
| 2026-04-17 08:44 | 50.04550 | 8.58052 | 364 ft | 25 kts | 70° |
| 2026-04-17 08:44 | 50.04611 | 8.58305 | 372 ft | 24 kts | 69° |
| 2026-04-17 08:44 | 50.04652 | 8.58477 | 370 ft | 11 kts | 70° |
| 2026-04-17 08:45 | 50.04622 | 8.58573 | 369 ft | 9 kts | 157° |
| 2026-04-17 08:45 | 50.04565 | 8.58607 | 372 ft | 9 kts | 159° |
| 2026-04-17 08:45 | 50.04501 | 8.58627 | 371 ft | 11 kts | 200° |
| 2026-04-17 08:45 | 50.04474 | 8.58533 | 370 ft | 8 kts | 250° |
| 2026-04-17 08:46 | 50.04441 | 8.58398 | 375 ft | 29 kts | 249° |
| 2026-04-17 08:46 | 50.04272 | 8.57687 | 362 ft | 109 kts | 249° |
| 2026-04-17 08:46 | 50.03929 | 8.56254 | 365 ft | 170 kts | 250° |
| 2026-04-17 08:46 | 50.03531 | 8.54537 | 1086 ft | 168 kts | 249° |
| 2026-04-17 08:47 | 50.03122 | 8.52831 | 1829 ft | 171 kts | 248° |
| 2026-04-17 08:47 | 50.02662 | 8.50996 | 2223 ft | 192 kts | 243° |
| 2026-04-17 08:47 | 50.01676 | 8.49568 | 2696 ft | 202 kts | 201° |
| 2026-04-17 08:47 | 50.00324 | 8.48938 | 3339 ft | 203 kts | 195° |
| 2026-04-17 08:48 | 49.98960 | 8.48338 | 3994 ft | 205 kts | 195° |
| 2026-04-17 08:48 | 49.97585 | 8.47729 | 4633 ft | 207 kts | 196° |
| 2026-04-17 08:48 | 49.96191 | 8.47112 | 5276 ft | 209 kts | 196° |
| 2026-04-17 08:48 | 49.94751 | 8.46464 | 5690 ft | 227 kts | 196° |
| 2026-04-17 08:49 | 49.93173 | 8.45742 | 6202 ft | 242 kts | 196° |
| 2026-04-17 08:49 | 49.91592 | 8.44797 | 6955 ft | 247 kts | 213° |
| 2026-04-17 08:49 | 49.90448 | 8.42821 | 7675 ft | 252 kts | 245° |
| 2026-04-17 08:49 | 49.90131 | 8.40170 | 8414 ft | 256 kts | 276° |
| 2026-04-17 08:50 | 49.90775 | 8.37594 | 9184 ft | 260 kts | 308° |
| 2026-04-17 08:50 | 49.92218 | 8.35906 | 9901 ft | 268 kts | 335° |
| 2026-04-17 08:50 | 49.93993 | 8.34730 | 10325 ft | 283 kts | 337° |
| 2026-04-17 08:50 | 49.95877 | 8.33514 | 10611 ft | 304 kts | 337° |
| 2026-04-17 08:51 | 49.97901 | 8.32203 | 10850 ft | 324 kts | 336° |
| 2026-04-17 08:51 | 50.00000 | 8.30837 | 11408 ft | 330 kts | 336° |
| 2026-04-17 08:51 | 50.02148 | 8.29515 | 12072 ft | 334 kts | 342° |
| 2026-04-17 08:51 | 50.04439 | 8.28844 | 12759 ft | 338 kts | 355° |
| 2026-04-17 08:52 | 50.06800 | 8.29018 | 13451 ft | 342 kts | 8° |
| 2026-04-17 08:52 | 50.09106 | 8.30010 | 14127 ft | 347 kts | 17° |
| 2026-04-17 08:52 | 50.11398 | 8.31218 | 14734 ft | 349 kts | 17° |
| 2026-04-17 08:52 | 50.13708 | 8.32428 | 15350 ft | 352 kts | 16° |
| 2026-04-17 08:53 | 50.16039 | 8.33646 | 15956 ft | 355 kts | 16° |
| 2026-04-17 08:53 | 50.18388 | 8.34876 | 16564 ft | 358 kts | 16° |
| 2026-04-17 08:53 | 50.20755 | 8.36119 | 17161 ft | 360 kts | 16° |
| 2026-04-17 08:53 | 50.23142 | 8.37375 | 17758 ft | 363 kts | 16° |
| 2026-04-17 08:54 | 50.25549 | 8.38642 | 18343 ft | 366 kts | 16° |
| 2026-04-17 08:54 | 50.27976 | 8.39919 | 18853 ft | 369 kts | 16° |
| 2026-04-17 08:54 | 50.30416 | 8.41206 | 19361 ft | 372 kts | 16° |
| 2026-04-17 08:54 | 50.32875 | 8.42526 | 19863 ft | 375 kts | 16° |
| 2026-04-17 08:55 | 50.35350 | 8.43873 | 20390 ft | 377 kts | 16° |
| 2026-04-17 08:55 | 50.37834 | 8.45236 | 20896 ft | 380 kts | 16° |
| 2026-04-17 08:55 | 50.40335 | 8.46611 | 21394 ft | 382 kts | 16° |
| 2026-04-17 08:55 | 50.42858 | 8.48001 | 21873 ft | 385 kts | 16° |
| 2026-04-17 08:56 | 50.45393 | 8.49397 | 22343 ft | 388 kts | 16° |
| 2026-04-17 08:56 | 50.47946 | 8.50790 | 22817 ft | 390 kts | 15° |
| 2026-04-17 08:56 | 50.50534 | 8.52109 | 23289 ft | 392 kts | 14° |
| 2026-04-17 08:56 | 50.53153 | 8.53365 | 23741 ft | 394 kts | 13° |
| 2026-04-17 08:57 | 50.55788 | 8.54591 | 24123 ft | 397 kts | 13° |
| 2026-04-17 08:57 | 50.58441 | 8.55816 | 24523 ft | 399 kts | 13° |
| 2026-04-17 08:57 | 50.61108 | 8.57058 | 24921 ft | 401 kts | 13° |
| 2026-04-17 08:57 | 50.63790 | 8.58324 | 25319 ft | 403 kts | 13° |
| 2026-04-17 08:58 | 50.66476 | 8.59609 | 25694 ft | 405 kts | 13° |
| 2026-04-17 08:58 | 50.69177 | 8.60912 | 26074 ft | 407 kts | 13° |
| 2026-04-17 08:58 | 50.71889 | 8.62223 | 26465 ft | 409 kts | 13° |
| 2026-04-17 08:58 | 50.74624 | 8.63527 | 26839 ft | 410 kts | 11° |
| 2026-04-17 08:59 | 50.77387 | 8.64189 | 27197 ft | 407 kts | 358° |
| 2026-04-17 08:59 | 50.80232 | 8.63858 | 27565 ft | 404 kts | 346° |
| 2026-04-17 08:59 | 50.82869 | 8.62585 | 27918 ft | 402 kts | 334° |
| 2026-04-17 08:59 | 50.85327 | 8.60375 | 28283 ft | 401 kts | 322° |
| 2026-04-17 09:00 | 50.87385 | 8.57397 | 28646 ft | 402 kts | 310° |
| 2026-04-17 09:00 | 50.89194 | 8.54008 | 29020 ft | 404 kts | 310° |
| 2026-04-17 09:00 | 50.91013 | 8.50599 | 29369 ft | 406 kts | 310° |
| 2026-04-17 09:00 | 50.92840 | 8.47184 | 29706 ft | 408 kts | 310° |
| 2026-04-17 09:01 | 50.94686 | 8.43733 | 30026 ft | 411 kts | 310° |
| 2026-04-17 09:01 | 50.96536 | 8.40274 | 30354 ft | 413 kts | 310° |
| 2026-04-17 09:01 | 50.98397 | 8.36788 | 30646 ft | 415 kts | 310° |
| 2026-04-17 09:01 | 51.00276 | 8.33327 | 30935 ft | 416 kts | 313° |
| 2026-04-17 09:02 | 51.02404 | 8.30274 | 31206 ft | 418 kts | 322° |
| 2026-04-17 09:02 | 51.04856 | 8.27772 | 31514 ft | 421 kts | 329° |
| 2026-04-17 09:02 | 51.07416 | 8.25518 | 31806 ft | 420 kts | 329° |
| 2026-04-17 09:02 | 51.09969 | 8.23255 | 32117 ft | 420 kts | 329° |
| 2026-04-17 09:03 | 51.12540 | 8.20965 | 32224 ft | 413 kts | 329° |
| 2026-04-17 09:03 | 51.14993 | 8.18773 | 32234 ft | 396 kts | 329° |
| 2026-04-17 09:03 | 51.17340 | 8.16677 | 32233 ft | 390 kts | 329° |
| 2026-04-17 09:04 | 51.22080 | 8.12435 | 32230 ft | 387 kts | 329° |
| 2026-04-17 09:04 | 51.26749 | 8.08250 | 32231 ft | 388 kts | 328° |
| 2026-04-17 09:05 | 51.31452 | 8.04026 | 32232 ft | 388 kts | 328° |
| 2026-04-17 09:05 | 51.36148 | 7.99806 | 32228 ft | 387 kts | 328° |
| 2026-04-17 09:06 | 51.40824 | 7.95550 | 32230 ft | 386 kts | 325° |
| 2026-04-17 09:06 | 51.45150 | 7.90487 | 32229 ft | 385 kts | 321° |
| 2026-04-17 09:07 | 51.49463 | 7.85359 | 32223 ft | 385 kts | 322° |
| 2026-04-17 09:07 | 51.53766 | 7.80237 | 32222 ft | 385 kts | 321° |
| 2026-04-17 09:08 | 51.58054 | 7.75100 | 32222 ft | 385 kts | 321° |
| 2026-04-17 09:08 | 51.62346 | 7.69946 | 32222 ft | 386 kts | 321° |
| 2026-04-17 09:09 | 51.66655 | 7.64766 | 32227 ft | 387 kts | 321° |
| 2026-04-17 09:09 | 51.70970 | 7.59571 | 32232 ft | 387 kts | 321° |
| 2026-04-17 09:10 | 51.77450 | 7.51755 | 32243 ft | 388 kts | 321° |
| 2026-04-17 09:10 | 51.81762 | 7.46525 | 32264 ft | 387 kts | 320° |
| 2026-04-17 09:11 | 51.86058 | 7.41280 | 32261 ft | 387 kts | 320° |
| 2026-04-17 09:11 | 51.90352 | 7.36041 | 32258 ft | 387 kts | 320° |
| 2026-04-17 09:12 | 51.94650 | 7.30803 | 32244 ft | 387 kts | 320° |
| 2026-04-17 09:12 | 51.98953 | 7.25544 | 32235 ft | 388 kts | 320° |
| 2026-04-17 09:13 | 52.01096 | 7.22916 | 32073 ft | 384 kts | 320° |
| 2026-04-17 09:13 | 52.03207 | 7.20319 | 31799 ft | 377 kts | 320° |
| 2026-04-17 09:13 | 52.05280 | 7.17769 | 31392 ft | 371 kts | 320° |
| 2026-04-17 09:13 | 52.07327 | 7.15251 | 30994 ft | 367 kts | 320° |
| 2026-04-17 09:14 | 52.09351 | 7.12757 | 30583 ft | 363 kts | 320° |
| 2026-04-17 09:14 | 52.11352 | 7.10288 | 30180 ft | 359 kts | 319° |
| 2026-04-17 09:14 | 52.13323 | 7.07852 | 29773 ft | 353 kts | 319° |
| 2026-04-17 09:14 | 52.15262 | 7.05450 | 29399 ft | 347 kts | 319° |
| 2026-04-17 09:15 | 52.17172 | 7.03083 | 29031 ft | 342 kts | 319° |
| 2026-04-17 09:15 | 52.19047 | 7.00761 | 28692 ft | 336 kts | 319° |
| 2026-04-17 09:15 | 52.20883 | 6.98448 | 28338 ft | 332 kts | 316° |
| 2026-04-17 09:15 | 52.22513 | 6.95781 | 27946 ft | 338 kts | 307° |
| 2026-04-17 09:16 | 52.24027 | 6.92737 | 27488 ft | 349 kts | 307° |
| 2026-04-17 09:16 | 52.25563 | 6.89647 | 27023 ft | 352 kts | 306° |
| 2026-04-17 09:16 | 52.27108 | 6.86548 | 26559 ft | 352 kts | 306° |
| 2026-04-17 09:16 | 52.28651 | 6.83456 | 26097 ft | 350 kts | 306° |
| 2026-04-17 09:17 | 52.30183 | 6.80381 | 25647 ft | 348 kts | 306° |
| 2026-04-17 09:17 | 52.31709 | 6.77318 | 25194 ft | 347 kts | 306° |
| 2026-04-17 09:17 | 52.33227 | 6.74273 | 24755 ft | 345 kts | 306° |
| 2026-04-17 09:17 | 52.34738 | 6.71239 | 24297 ft | 343 kts | 306° |
| 2026-04-17 09:18 | 52.36239 | 6.68221 | 23844 ft | 341 kts | 306° |
| 2026-04-17 09:18 | 52.37731 | 6.65218 | 23347 ft | 339 kts | 306° |
| 2026-04-17 09:18 | 52.39211 | 6.62233 | 22903 ft | 337 kts | 306° |
| 2026-04-17 09:18 | 52.40684 | 6.59258 | 22454 ft | 336 kts | 306° |
| 2026-04-17 09:19 | 52.42149 | 6.56292 | 22021 ft | 334 kts | 306° |
| 2026-04-17 09:19 | 52.43606 | 6.53341 | 21584 ft | 332 kts | 306° |
| 2026-04-17 09:19 | 52.45049 | 6.50394 | 21150 ft | 330 kts | 304° |
| 2026-04-17 09:19 | 52.46214 | 6.47193 | 20725 ft | 325 kts | 291° |
| 2026-04-17 09:20 | 52.46924 | 6.43703 | 20298 ft | 322 kts | 279° |
| 2026-04-17 09:20 | 52.47200 | 6.40084 | 19883 ft | 319 kts | 273° |
| 2026-04-17 09:20 | 52.47378 | 6.36461 | 19464 ft | 318 kts | 273° |
| 2026-04-17 09:20 | 52.47558 | 6.32852 | 19048 ft | 317 kts | 273° |
| 2026-04-17 09:21 | 52.47737 | 6.29260 | 18636 ft | 315 kts | 273° |
| 2026-04-17 09:21 | 52.47916 | 6.25684 | 18185 ft | 314 kts | 273° |
| 2026-04-17 09:21 | 52.48092 | 6.22123 | 17766 ft | 312 kts | 273° |
| 2026-04-17 09:21 | 52.48270 | 6.18577 | 17359 ft | 311 kts | 273° |
| 2026-04-17 09:22 | 52.48443 | 6.15058 | 16953 ft | 309 kts | 272° |
| 2026-04-17 09:22 | 52.48610 | 6.11552 | 16562 ft | 307 kts | 272° |
| 2026-04-17 09:22 | 52.48775 | 6.08064 | 16146 ft | 306 kts | 272° |
| 2026-04-17 09:22 | 52.48940 | 6.04594 | 15749 ft | 304 kts | 273° |
| 2026-04-17 09:23 | 52.49103 | 6.01188 | 15355 ft | 302 kts | 273° |
| 2026-04-17 09:23 | 52.49267 | 5.97757 | 14973 ft | 301 kts | 272° |
| 2026-04-17 09:23 | 52.49428 | 5.94339 | 14566 ft | 300 kts | 272° |
| 2026-04-17 09:23 | 52.49536 | 5.92041 | 14310 ft | 299 kts | 272° |
| 2026-04-17 09:24 | 52.49742 | 5.87558 | 13770 ft | 297 kts | 272° |
| 2026-04-17 09:24 | 52.49896 | 5.84171 | 13371 ft | 296 kts | 272° |
| 2026-04-17 09:24 | 52.49999 | 5.81901 | 13110 ft | 295 kts | 272° |
| 2026-04-17 09:24 | 52.50151 | 5.78556 | 12731 ft | 293 kts | 272° |
| 2026-04-17 09:25 | 52.50300 | 5.75223 | 12342 ft | 292 kts | 272° |
| 2026-04-17 09:25 | 52.50450 | 5.71905 | 11962 ft | 291 kts | 272° |
| 2026-04-17 09:25 | 52.50599 | 5.68607 | 11601 ft | 288 kts | 272° |
| 2026-04-17 09:25 | 52.50745 | 5.65349 | 11219 ft | 285 kts | 272° |
| 2026-04-17 09:26 | 52.50887 | 5.62122 | 10850 ft | 283 kts | 272° |
| 2026-04-17 09:26 | 52.51028 | 5.58914 | 10479 ft | 280 kts | 272° |
| 2026-04-17 09:26 | 52.51168 | 5.55734 | 10120 ft | 278 kts | 272° |
| 2026-04-17 09:26 | 52.51305 | 5.52581 | 9712 ft | 276 kts | 272° |
| 2026-04-17 09:27 | 52.51438 | 5.49447 | 9302 ft | 275 kts | 272° |
| 2026-04-17 09:27 | 52.51571 | 5.46333 | 8916 ft | 273 kts | 272° |
| 2026-04-17 09:27 | 52.51706 | 5.43238 | 8540 ft | 271 kts | 272° |
| 2026-04-17 09:27 | 52.51838 | 5.40167 | 8143 ft | 269 kts | 272° |
| 2026-04-17 09:28 | 52.51965 | 5.37146 | 7750 ft | 268 kts | 272° |
| 2026-04-17 09:28 | 52.52089 | 5.34060 | 7350 ft | 267 kts | 272° |
| 2026-04-17 09:28 | 52.52206 | 5.31066 | 6969 ft | 266 kts | 272° |
| 2026-04-17 09:28 | 52.52319 | 5.28062 | 6575 ft | 265 kts | 272° |
| 2026-04-17 09:29 | 52.52430 | 5.25049 | 6178 ft | 264 kts | 272° |
| 2026-04-17 09:29 | 52.52537 | 5.22054 | 5783 ft | 262 kts | 272° |
| 2026-04-17 09:29 | 52.52642 | 5.19075 | 5398 ft | 260 kts | 272° |
| 2026-04-17 09:29 | 52.52742 | 5.16123 | 4984 ft | 257 kts | 272° |
| 2026-04-17 09:30 | 52.52839 | 5.13201 | 4401 ft | 255 kts | 272° |
| 2026-04-17 09:30 | 52.52932 | 5.10299 | 3857 ft | 253 kts | 272° |
| 2026-04-17 09:30 | 52.53021 | 5.07412 | 3384 ft | 253 kts | 272° |
| 2026-04-17 09:30 | 52.53108 | 5.04541 | 3045 ft | 251 kts | 272° |
| 2026-04-17 09:31 | 52.53196 | 5.01683 | 2667 ft | 250 kts | 272° |
| 2026-04-17 09:31 | 52.53286 | 4.98840 | 2294 ft | 249 kts | 272° |
| 2026-04-17 09:31 | 52.53383 | 4.96055 | 2138 ft | 239 kts | 271° |
| 2026-04-17 09:31 | 52.53492 | 4.93398 | 2032 ft | 228 kts | 272° |
| 2026-04-17 09:32 | 52.53603 | 4.90881 | 1996 ft | 214 kts | 272° |
| 2026-04-17 09:32 | 52.53709 | 4.88461 | 2001 ft | 213 kts | 271° |
| 2026-04-17 09:32 | 52.53820 | 4.86040 | 2001 ft | 212 kts | 271° |
| 2026-04-17 09:32 | 52.53933 | 4.83631 | 2011 ft | 208 kts | 272° |
| 2026-04-17 09:33 | 52.54042 | 4.81366 | 2005 ft | 200 kts | 271° |
| 2026-04-17 09:33 | 52.54157 | 4.79066 | 2000 ft | 197 kts | 272° |
| 2026-04-17 09:33 | 52.54261 | 4.76825 | 2004 ft | 196 kts | 269° |
| 2026-04-17 09:33 | 52.53989 | 4.74694 | 2000 ft | 191 kts | 239° |
| 2026-04-17 09:34 | 52.53080 | 4.73144 | 2003 ft | 190 kts | 209° |
| 2026-04-17 09:34 | 52.51811 | 4.72602 | 2003 ft | 191 kts | 185° |
| 2026-04-17 09:34 | 52.50502 | 4.72489 | 2004 ft | 181 kts | 184° |
| 2026-04-17 09:34 | 52.49322 | 4.72389 | 2004 ft | 160 kts | 185° |
| 2026-04-17 09:35 | 52.48264 | 4.72294 | 2003 ft | 148 kts | 185° |
| 2026-04-17 09:35 | 52.47257 | 4.72202 | 2001 ft | 143 kts | 185° |
| 2026-04-17 09:35 | 52.46272 | 4.72111 | 1973 ft | 142 kts | 185° |
| 2026-04-17 09:35 | 52.45302 | 4.72022 | 1835 ft | 137 kts | 185° |
| 2026-04-17 09:36 | 52.44361 | 4.71936 | 1667 ft | 134 kts | 185° |
| 2026-04-17 09:36 | 52.43438 | 4.71848 | 1497 ft | 132 kts | 185° |
| 2026-04-17 09:36 | 52.42530 | 4.71749 | 1297 ft | 131 kts | 185° |
| 2026-04-17 09:36 | 52.41618 | 4.71658 | 1127 ft | 131 kts | 185° |
| 2026-04-17 09:37 | 52.40708 | 4.71574 | 953 ft | 131 kts | 183° |
| 2026-04-17 09:37 | 52.39797 | 4.71534 | 764 ft | 132 kts | 182° |
| 2026-04-17 09:37 | 52.38882 | 4.71471 | 586 ft | 132 kts | 185° |
| 2026-04-17 09:37 | 52.37966 | 4.71367 | 412 ft | 132 kts | 185° |
| 2026-04-17 09:38 | 52.37051 | 4.71279 | 233 ft | 132 kts | 184° |
| 2026-04-17 09:38 | 52.36137 | 4.71189 | 68 ft | 132 kts | 184° |
| 2026-04-17 09:38 | 52.35267 | 4.71108 | -2 ft | 113 kts | 184° |
| 2026-04-17 09:38 | 52.34633 | 4.71054 | -1 ft | 67 kts | 183° |
| 2026-04-17 09:39 | 52.34213 | 4.71016 | -3 ft | 56 kts | 183° |
| 2026-04-17 09:39 | 52.33896 | 4.71005 | 0 ft | 35 kts | 171° |
| 2026-04-17 09:39 | 52.33699 | 4.71141 | -1 ft | 29 kts | 153° |
| 2026-04-17 09:39 | 52.33521 | 4.71239 | -1 ft | 26 kts | 181° |
| 2026-04-17 09:40 | 52.33337 | 4.71220 | -1 ft | 27 kts | 184° |
| 2026-04-17 09:40 | 52.33179 | 4.71336 | -1 ft | 26 kts | 131° |
| 2026-04-17 09:40 | 52.33055 | 4.71567 | -1 ft | 28 kts | 131° |
| 2026-04-17 09:40 | 52.32925 | 4.71807 | -1 ft | 29 kts | 131° |
| 2026-04-17 09:41 | 52.32840 | 4.71984 | -1 ft | 15 kts | 112° |
| 2026-04-17 09:41 | 52.32840 | 4.72167 | -1 ft | 18 kts | 88° |
| 2026-04-17 09:41 | 52.32764 | 4.72367 | -1 ft | 24 kts | 132° |
| 2026-04-17 09:41 | 52.32646 | 4.72571 | -1 ft | 25 kts | 137° |
| 2026-04-17 09:42 | 52.32511 | 4.72767 | -1 ft | 27 kts | 139° |
| 2026-04-17 09:42 | 52.32367 | 4.72969 | -1 ft | 28 kts | 139° |
| 2026-04-17 09:42 | 52.32217 | 4.73176 | -1 ft | 29 kts | 140° |
| 2026-04-17 09:42 | 52.32080 | 4.73381 | -1 ft | 24 kts | 127° |
| 2026-04-17 09:43 | 52.32050 | 4.73655 | -1 ft | 26 kts | 93° |
| 2026-04-17 09:43 | 52.32040 | 4.73956 | -2 ft | 28 kts | 93° |
| 2026-04-17 09:43 | 52.32007 | 4.74168 | -1 ft | 18 kts | 142° |
| 2026-04-17 09:43 | 52.31873 | 4.74185 | -1 ft | 22 kts | 184° |
| 2026-04-17 09:44 | 52.31705 | 4.74168 | -1 ft | 26 kts | 183° |
| 2026-04-17 09:44 | 52.31506 | 4.74150 | -1 ft | 31 kts | 182° |
| 2026-04-17 09:44 | 52.31313 | 4.74133 | -1 ft | 28 kts | 183° |
| 2026-04-17 09:44 | 52.31118 | 4.74115 | -1 ft | 28 kts | 183° |
| 2026-04-17 09:45 | 52.30918 | 4.74096 | -1 ft | 29 kts | 183° |
| 2026-04-17 09:45 | 52.30712 | 4.74077 | -1 ft | 30 kts | 183° |
| 2026-04-17 09:45 | 52.30505 | 4.74059 | -1 ft | 30 kts | 181° |
| 2026-04-17 09:45 | 52.30361 | 4.74228 | -1 ft | 26 kts | 130° |
| 2026-04-17 09:46 | 52.30269 | 4.74393 | 2 ft | 3 kts | 153° |
| 2026-04-17 09:46 | 52.30268 | 4.74392 | 2 ft | 0 kts | 170° |
| 2026-04-17 09:46 | 52.30266 | 4.74393 | 8 ft | 0 kts | 163° |
| 2026-04-17 09:46 | 52.30260 | 4.74401 | 10 ft | 5 kts | 140° |
| 2026-04-17 09:47 | 52.30188 | 4.74548 | 10 ft | 26 kts | 128° |
| 2026-04-17 09:47 | 52.30074 | 4.74772 | 1 ft | 22 kts | 129° |
| 2026-04-17 09:47 | 52.29994 | 4.74915 | -1 ft | 17 kts | 133° |
| 2026-04-17 09:47 | 52.29910 | 4.75066 | -1 ft | 19 kts | 131° |
| 2026-04-17 09:48 | 52.29839 | 4.75202 | -1 ft | 13 kts | 130° |
| 2026-04-17 09:48 | 52.29782 | 4.75344 | -1 ft | 16 kts | 106° |
| 2026-04-17 09:48 | 52.29815 | 4.75526 | -1 ft | 18 kts | 59° |
| 2026-04-17 09:48 | 52.29885 | 4.75708 | -1 ft | 20 kts | 57° |
| 2026-04-17 09:49 | 52.29964 | 4.75907 | -1 ft | 22 kts | 57° |
| 2026-04-17 09:49 | 52.30048 | 4.76124 | -1 ft | 24 kts | 58° |
| 2026-04-17 09:49 | 52.30127 | 4.76329 | -1 ft | 18 kts | 58° |
| 2026-04-17 09:49 | 52.30191 | 4.76500 | -1 ft | 14 kts | 59° |
| 2026-04-17 09:50 | 52.30244 | 4.76642 | -1 ft | 11 kts | 58° |
| 2026-04-17 09:50 | 52.30293 | 4.76722 | -1 ft | 11 kts | 21° |
| 2026-04-17 09:50 | 52.30348 | 4.76655 | -1 ft | 12 kts | 287° |
| 2026-04-17 09:50 | 52.30392 | 4.76541 | -1 ft | 12 kts | 311° |
| 2026-04-17 09:51 | 52.30437 | 4.76453 | -1 ft | 8 kts | 309° |
| 2026-04-17 09:51 | 52.30448 | 4.76433 | -1 ft | 2 kts | 313° |
| 2026-04-17 09:51 | 52.30461 | 4.76393 | -1 ft | 5 kts | 280° |
| 2026-04-17 09:51 | 52.30454 | 4.76353 | -1 ft | 0 kts | 243° |
| 2026-04-17 09:52 | 52.30447 | 4.76334 | -1 ft | 3 kts | 239° |
| 2026-04-17 09:52 | 52.30443 | 4.76325 | -1 ft | 0 kts | 238° |